Time;durP1;ratioP1;P1;durP2;ratioP2;P2;SDS_P1;SDS_P2;PMS_P1;PMS_P2;Temp;Humidity;BMP_temperature;BMP_pressure;BME280_temperature;BME280_humidity;BME280_pressure;Samples;Min_cycle;Max_cycle;Signal;HPM_P1;HPM_P2
2022/04/14 00:00:34;;;;;;;76.03;34.08;;;;;;;12.51;87.51;99658.22;4993363;28;20049;-53
2022/04/14 00:03:00;;;;;;;76.78;36.97;;;;;;;12.45;87.68;99658.38;4988941;28;20033;-53
2022/04/14 00:05:25;;;;;;;70.93;31.63;;;;;;;12.44;87.01;99654.88;4987272;28;20113;-53
2022/04/14 00:07:50;;;;;;;70.20;32.22;;;;;;;12.39;86.90;99654.00;4993463;28;20443;-53
2022/04/14 00:10:16;;;;;;;83.43;32.33;;;;;;;12.41;87.07;99657.25;4993204;28;20465;-54
2022/04/14 00:12:41;;;;;;;66.55;31.70;;;;;;;12.39;85.73;99657.50;4994034;28;20484;-53
2022/04/14 00:15:07;;;;;;;70.57;31.17;;;;;;;12.34;86.38;99659.28;4998472;28;20041;-52
2022/04/14 00:17:33;;;;;;;60.85;29.63;;;;;;;12.27;86.60;99656.75;4992638;28;20038;-54
2022/04/14 00:20:02;;;;;;;53.28;26.50;;;;;;;12.42;85.08;99664.25;4988896;28;20084;-52
2022/04/14 00:22:27;;;;;;;64.07;29.83;;;;;;;12.34;85.38;99661.97;4990140;28;20042;-50
2022/04/14 00:24:53;;;;;;;62.45;29.90;;;;;;;12.22;86.06;99659.34;4988394;28;20069;-52
2022/04/14 00:27:19;;;;;;;59.05;26.95;;;;;;;12.22;85.72;99659.34;4994123;28;20050;-54
2022/04/14 00:29:44;;;;;;;63.95;29.02;;;;;;;12.24;85.90;99658.06;4993579;28;20070;-52
2022/04/14 00:32:10;;;;;;;63.90;30.08;;;;;;;12.20;85.83;99659.59;4994741;28;20534;-52
2022/04/14 00:34:35;;;;;;;68.22;29.88;;;;;;;12.14;86.21;99657.88;4992466;28;20026;-52
2022/04/14 00:37:01;;;;;;;59.53;28.85;;;;;;;12.19;85.85;99654.47;4991493;28;20038;-53
2022/04/14 00:39:26;;;;;;;57.92;28.17;;;;;;;12.23;85.83;99656.44;4991502;28;20116;-51
2022/04/14 00:41:51;;;;;;;66.55;27.20;;;;;;;12.22;85.24;99659.34;4987690;28;20030;-51
2022/04/14 00:44:17;;;;;;;49.33;26.27;;;;;;;12.13;85.31;99648.19;4992620;28;20037;-53
2022/04/14 00:46:42;;;;;;;52.53;27.35;;;;;;;12.12;85.78;99654.63;4991895;28;20038;-52
2022/04/14 00:49:08;;;;;;;54.70;26.55;;;;;;;12.06;86.21;99648.34;4994534;28;20026;-54
2022/04/14 00:51:33;;;;;;;63.25;28.05;;;;;;;12.08;85.88;99648.09;4993742;28;20133;-52
2022/04/14 00:53:58;;;;;;;53.50;27.70;;;;;;;12.09;85.81;99647.03;4998465;28;20026;-53
2022/04/14 00:56:24;;;;;;;63.67;28.00;;;;;;;11.96;86.29;99645.47;4988195;28;20046;-54
2022/04/14 00:58:49;;;;;;;58.88;28.40;;;;;;;12.01;86.19;99647.44;4988398;28;20037;-53
2022/04/14 01:01:15;;;;;;;56.92;25.58;;;;;;;12.07;85.76;99649.16;4989167;28;20054;-53
2022/04/14 01:03:41;;;;;;;58.35;26.60;;;;;;;11.98;86.29;99647.91;4991562;28;20033;-52
2022/04/14 01:06:06;;;;;;;57.30;25.27;;;;;;;12.05;85.69;99648.56;4995015;28;20041;-53
2022/04/14 01:08:32;;;;;;;61.08;26.52;;;;;;;11.98;85.92;99654.13;4992574;28;20022;-53
2022/04/14 01:10:58;;;;;;;53.83;25.83;;;;;;;11.98;85.62;99656.81;4994619;28;20531;-52
2022/04/14 01:13:23;;;;;;;54.35;25.83;;;;;;;11.89;86.34;99654.75;4995548;28;20042;-52
2022/04/14 01:15:49;;;;;;;52.03;26.02;;;;;;;11.85;86.81;99657.84;4991524;28;20043;-53
2022/04/14 01:18:15;;;;;;;53.15;25.98;;;;;;;11.85;86.41;99654.38;4993840;28;20488;-53
2022/04/14 01:20:43;;;;;;;50.92;25.23;;;;;;;11.88;86.02;99656.59;4989557;28;20412;-53
2022/04/14 01:23:10;;;;;;;60.03;26.02;;;;;;;11.73;86.82;99657.13;4996313;28;20041;-54
2022/04/14 01:25:36;;;;;;;53.83;26.27;;;;;;;11.76;86.87;99659.31;4999062;28;20579;-52
2022/04/14 01:28:02;;;;;;;56.22;25.05;;;;;;;11.69;87.00;99655.16;5009944;28;20351;-51
2022/04/14 01:30:28;;;;;;;52.45;25.25;;;;;;;11.70;86.90;99652.19;4995326;28;20041;-51
2022/04/14 01:32:53;;;;;;;58.05;25.55;;;;;;;11.60;86.96;99657.38;4997000;28;20022;-51
2022/04/14 01:35:18;;;;;;;57.97;26.30;;;;;;;11.52;87.77;99652.38;4990879;28;20053;-50
2022/04/14 01:37:44;;;;;;;52.92;26.23;;;;;;;11.52;87.78;99650.50;4991283;28;20034;-53
2022/04/14 01:40:10;;;;;;;52.13;26.45;;;;;;;11.45;88.43;99652.50;4995612;28;20038;-51
2022/04/14 01:42:35;;;;;;;54.53;27.63;;;;;;;11.50;88.13;99649.13;4998333;28;20046;-51
2022/04/14 01:45:00;;;;;;;56.13;27.10;;;;;;;11.36;88.96;99656.66;4994552;28;20034;-54
2022/04/14 01:47:26;;;;;;;50.03;25.88;;;;;;;11.36;88.89;99662.00;5001119;28;20636;-51
2022/04/14 01:49:52;;;;;;;65.50;26.05;;;;;;;11.32;88.98;99664.34;4995373;28;20061;-54
2022/04/14 01:52:18;;;;;;;52.53;25.25;;;;;;;11.38;88.82;99663.41;5001860;28;20545;-51
2022/04/14 01:54:43;;;;;;;54.15;25.25;;;;;;;11.30;88.91;99666.44;4996989;28;20027;-51
2022/04/14 01:57:09;;;;;;;66.95;27.40;;;;;;;11.28;89.26;99665.84;4995184;28;20046;-52
2022/04/14 01:59:34;;;;;;;65.50;27.27;;;;;;;11.22;89.55;99662.25;4990222;28;20030;-50
2022/04/14 02:02:00;;;;;;;61.22;27.33;;;;;;;11.21;89.68;99662.50;4988867;28;20073;-53
2022/04/14 02:04:25;;;;;;;63.72;28.50;;;;;;;11.19;89.80;99661.91;4996977;28;20384;-53
2022/04/14 02:06:51;;;;;;;53.22;26.00;;;;;;;11.25;89.38;99660.97;4990122;28;20064;-50
2022/04/14 02:09:16;;;;;;;61.22;26.33;;;;;;;11.14;89.74;99669.84;4993792;28;20026;-52
2022/04/14 02:11:41;;;;;;;58.95;26.15;;;;;;;11.15;89.76;99660.75;4995088;28;20050;-54
2022/04/14 02:14:07;;;;;;;52.65;26.90;;;;;;;11.14;90.03;99665.31;4990995;28;20030;-51
2022/04/14 02:16:32;;;;;;;56.90;25.27;;;;;;;11.18;89.40;99665.63;4988974;28;20049;-53
2022/04/14 02:18:58;;;;;;;56.22;25.60;;;;;;;11.09;89.98;99667.06;4979226;28;20061;-53
2022/04/14 02:21:23;;;;;;;58.90;25.83;;;;;;;11.13;89.72;99663.69;4996154;28;20072;-52
2022/04/14 02:23:49;;;;;;;53.67;25.55;;;;;;;11.08;89.88;99662.72;4990858;28;20575;-52
2022/04/14 02:26:16;;;;;;;54.58;26.15;;;;;;;11.11;89.75;99662.28;4997488;28;20046;-52
2022/04/14 02:28:41;;;;;;;55.25;26.13;;;;;;;11.19;89.35;99667.28;4999827;28;20026;-50
2022/04/14 02:31:07;;;;;;;61.97;26.05;;;;;;;11.09;89.37;99672.44;4988250;28;20049;-50
2022/04/14 02:33:32;;;;;;;54.33;24.73;;;;;;;11.09;89.64;99672.44;4991672;28;20500;-50
2022/04/14 02:35:57;;;;;;;50.58;24.92;;;;;;;11.14;88.95;99669.84;4993774;28;20408;-51
2022/04/14 02:38:23;;;;;;;57.25;24.92;;;;;;;11.17;89.21;99669.38;4993509;28;20647;-53
2022/04/14 02:40:48;;;;;;;57.70;24.52;;;;;;;11.12;89.06;99662.03;4990514;28;20050;-53
2022/04/14 02:43:15;;;;;;;54.70;24.20;;;;;;;11.15;89.05;99655.38;4990606;28;20108;-50
2022/04/14 02:45:40;;;;;;;57.85;25.80;;;;;;;11.14;89.21;99659.13;4994852;28;20038;-53
2022/04/14 02:48:06;;;;;;;53.92;24.85;;;;;;;11.05;89.39;99660.53;4989811;28;20030;-53
2022/04/14 02:50:31;;;;;;;55.03;25.88;;;;;;;11.04;89.48;99664.28;4993584;28;20042;-51
2022/04/14 02:52:57;;;;;;;51.90;24.77;;;;;;;11.16;89.03;99662.41;5000748;28;20030;-52
2022/04/14 02:55:22;;;;;;;59.50;27.52;;;;;;;11.04;89.44;99654.34;4994251;28;20039;-53
2022/04/14 02:57:48;;;;;;;57.63;25.95;;;;;;;11.10;89.14;99660.63;4997689;28;20026;-53
2022/04/14 03:00:14;;;;;;;55.05;25.35;;;;;;;10.99;89.68;99657.72;4990364;28;20120;-53
2022/04/14 03:02:39;;;;;;;65.32;26.55;;;;;;;10.95;89.92;99661.94;4989799;28;20089;-50
2022/04/14 03:05:06;;;;;;;60.38;27.27;;;;;;;10.92;90.17;99657.03;4995827;28;20056;-52
2022/04/14 03:07:32;;;;;;;57.80;26.23;;;;;;;10.91;90.45;99660.78;4990249;28;20034;-53
2022/04/14 03:09:57;;;;;;;55.10;26.02;;;;;;;10.90;90.56;99659.13;4989956;28;20638;-54
2022/04/14 03:12:22;;;;;;;59.85;27.10;;;;;;;10.92;90.52;99662.41;4997784;28;20034;-52
2022/04/14 03:14:48;;;;;;;69.10;26.38;;;;;;;10.85;90.38;99664.38;4997194;28;20026;-54
2022/04/14 03:17:13;;;;;;;59.47;27.05;;;;;;;10.79;90.83;99665.31;4993099;28;20086;-54
2022/04/14 03:19:39;;;;;;;61.58;25.23;;;;;;;10.87;90.89;99659.59;4994484;28;20084;-53
2022/04/14 03:22:04;;;;;;;62.63;26.98;;;;;;;10.80;90.90;99658.91;4992097;28;20096;-53
2022/04/14 03:24:30;;;;;;;66.25;27.50;;;;;;;10.81;91.20;99660.56;4994701;28;20489;-53
2022/04/14 03:26:56;;;;;;;62.13;26.48;;;;;;;10.81;91.09;99665.91;4993690;28;20038;-53
2022/04/14 03:29:21;;;;;;;67.80;27.80;;;;;;;10.86;90.99;99663.34;4988414;28;20570;-51
2022/04/14 03:31:46;;;;;;;64.57;28.73;;;;;;;10.91;90.53;99660.78;4989194;28;20042;-52
2022/04/14 03:34:12;;;;;;;64.38;28.00;;;;;;;11.06;90.37;99662.16;4996013;28;20026;-51
2022/04/14 03:36:37;;;;;;;60.95;26.00;;;;;;;10.90;90.54;99659.13;4988775;28;20046;-53
2022/04/14 03:39:03;;;;;;;61.47;27.33;;;;;;;10.88;90.85;99661.22;4993946;28;20057;-54
2022/04/14 03:41:29;;;;;;;60.25;27.00;;;;;;;10.89;91.03;99662.06;4994620;28;20420;-51
2022/04/14 03:43:54;;;;;;;59.10;25.67;;;;;;;10.94;90.89;99654.94;4988930;28;20038;-53
2022/04/14 03:46:20;;;;;;;62.97;28.52;;;;;;;11.00;90.69;99662.03;4987919;28;20042;-55
2022/04/14 03:48:46;;;;;;;65.68;27.45;;;;;;;10.98;90.54;99666.00;4991655;28;20464;-52
2022/04/14 03:51:14;;;;;;;62.67;26.75;;;;;;;10.98;90.36;99661.47;4991543;28;20053;-51
2022/04/14 03:53:40;;;;;;;63.58;27.95;;;;;;;10.97;90.30;99665.19;4996629;28;20054;-54
2022/04/14 03:56:05;;;;;;;61.40;28.02;;;;;;;10.99;90.23;99668.47;4996027;28;20042;-54
2022/04/14 03:58:31;;;;;;;65.95;28.33;;;;;;;11.04;90.32;99675.00;4999546;28;20064;-53
2022/04/14 04:00:56;;;;;;;62.25;27.88;;;;;;;11.00;90.51;99674.63;4987718;28;20555;-54
2022/04/14 04:03:22;;;;;;;62.78;28.58;;;;;;;10.94;90.81;99676.41;4994846;28;20030;-54
2022/04/14 04:05:48;;;;;;;64.05;26.80;;;;;;;10.98;91.27;99672.22;4996279;28;20045;-51
2022/04/14 04:08:13;;;;;;;70.28;27.77;;;;;;;11.05;90.25;99671.25;4988381;28;20030;-55
2022/04/14 04:10:39;;;;;;;62.65;28.67;;;;;;;11.02;90.82;99669.88;4994428;28;20513;-54
2022/04/14 04:13:04;;;;;;;58.60;26.48;;;;;;;11.05;91.23;99671.25;4991973;28;20026;-54
2022/04/14 04:15:30;;;;;;;66.63;27.67;;;;;;;11.01;91.11;99661.00;4992769;28;20555;-54
2022/04/14 04:17:55;;;;;;;72.50;28.73;;;;;;;11.04;91.02;99669.63;4993814;28;20099;-54
2022/04/14 04:20:20;;;;;;;71.45;29.70;;;;;;;11.14;90.60;99675.22;4993496;28;20060;-51
2022/04/14 04:22:46;;;;;;;82.82;31.15;;;;;;;11.07;90.88;99679.91;4986852;28;20031;-51
2022/04/14 04:25:11;;;;;;;68.10;27.85;;;;;;;11.14;91.11;99686.75;4987893;28;20037;-52
2022/04/14 04:27:37;;;;;;;74.60;29.38;;;;;;;11.09;91.12;99683.16;4988440;28;20057;-51
2022/04/14 04:30:04;;;;;;;72.88;28.58;;;;;;;11.13;91.25;99689.66;4985523;28;20074;-51
2022/04/14 04:32:31;;;;;;;75.40;31.23;;;;;;;11.07;91.33;99690.63;4998434;28;20035;-53
2022/04/14 04:34:56;;;;;;;75.82;31.25;;;;;;;11.02;91.74;99694.00;4999282;28;20030;-54
2022/04/14 04:37:22;;;;;;;76.63;32.13;;;;;;;10.96;91.74;99693.06;4995648;28;20096;-53
2022/04/14 04:39:47;;;;;;;79.85;30.80;;;;;;;10.93;92.23;99685.50;4997584;28;20030;-54
2022/04/14 04:42:13;;;;;;;79.70;33.28;;;;;;;10.98;91.97;99687.47;4996030;28;20065;-53
2022/04/14 04:44:38;;;;;;;87.60;33.08;;;;;;;10.99;92.12;99689.91;4997601;28;20053;-54
2022/04/14 04:47:04;;;;;;;80.65;32.72;;;;;;;11.02;92.14;99692.13;4997670;28;20080;-52
2022/04/14 04:49:29;;;;;;;81.63;32.13;;;;;;;10.97;92.39;99696.56;5002705;28;20038;-55
2022/04/14 04:51:55;;;;;;;88.70;33.83;;;;;;;11.02;92.12;99700.19;4998402;28;20042;-54
2022/04/14 04:54:20;;;;;;;78.35;32.45;;;;;;;10.97;92.52;99702.75;4999241;28;20056;-53
2022/04/14 04:56:46;;;;;;;81.32;32.58;;;;;;;11.07;92.34;99696.00;4999897;28;20046;-52
2022/04/14 04:59:11;;;;;;;83.80;37.83;;;;;;;11.05;92.39;99698.09;4992267;28;20057;-51
2022/04/14 05:01:37;;;;;;;86.00;34.05;;;;;;;11.06;92.73;99700.53;5000936;28;20049;-51
2022/04/14 05:04:02;;;;;;;81.00;34.22;;;;;;;10.94;93.49;99691.69;4990437;28;20042;-53
2022/04/14 05:06:28;;;;;;;82.18;34.17;;;;;;;11.00;93.17;99702.28;4994595;28;20145;-54
2022/04/14 05:08:53;;;;;;;89.78;34.80;;;;;;;11.01;92.98;99698.56;4991705;28;20049;-52
2022/04/14 05:11:19;;;;;;;87.35;34.38;;;;;;;11.08;92.61;99697.59;4991221;28;20489;-52
2022/04/14 05:13:44;;;;;;;82.90;34.17;;;;;;;11.07;92.63;99698.66;4998163;28;20037;-52
2022/04/14 05:16:10;;;;;;;95.85;35.53;;;;;;;11.10;92.75;99711.59;5002689;28;20038;-52
2022/04/14 05:18:36;;;;;;;90.00;34.13;;;;;;;11.12;93.04;99709.50;4991197;28;20116;-53
2022/04/14 05:21:01;;;;;;;96.88;34.05;;;;;;;11.08;93.28;99714.50;4991427;28;20623;-52
2022/04/14 05:23:27;;;;;;;89.90;34.42;;;;;;;11.01;93.65;99714.66;4995777;28;20038;-50
2022/04/14 05:25:52;;;;;;;94.22;35.00;;;;;;;11.07;93.85;99718.25;4998016;28;20061;-51
2022/04/14 05:28:18;;;;;;;99.45;36.83;;;;;;;11.14;93.10;99726.19;5002140;28;20029;-54
2022/04/14 05:30:43;;;;;;;106.82;35.97;;;;;;;10.96;94.33;99721.78;4990293;28;20408;-53
2022/04/14 05:33:10;;;;;;;101.35;36.55;;;;;;;11.07;94.27;99728.19;4998340;28;20493;-54
2022/04/14 05:35:39;;;;;;;90.43;35.55;;;;;;;11.01;94.06;99729.94;4990919;28;20492;-51
2022/04/14 05:38:05;;;;;;;101.45;35.78;;;;;;;11.00;94.58;99734.47;4989719;28;20043;-53
2022/04/14 05:40:31;;;;;;;101.55;36.88;;;;;;;10.97;94.59;99740.28;4996414;28;20046;-52
2022/04/14 05:42:56;;;;;;;98.00;37.00;;;;;;;11.02;94.51;99737.72;4992922;28;20069;-50
2022/04/14 05:45:21;;;;;;;95.45;34.67;;;;;;;11.07;94.12;99742.41;4993674;28;20125;-53
2022/04/14 05:47:47;;;;;;;105.13;36.33;;;;;;;11.06;94.01;99743.47;4996840;28;20014;-50
2022/04/14 05:50:12;;;;;;;103.90;36.85;;;;;;;11.06;94.51;99742.63;4994886;28;20034;-51
2022/04/14 05:52:38;;;;;;;94.68;37.55;;;;;;;11.04;94.57;99742.06;4991251;28;20038;-53
2022/04/14 05:55:04;;;;;;;105.68;39.08;;;;;;;11.09;94.72;99748.34;4991066;28;20376;-52
2022/04/14 05:57:29;;;;;;;97.95;38.38;;;;;;;11.02;95.04;99748.47;4990807;28;20018;-50
2022/04/14 05:59:55;;;;;;;104.72;39.17;;;;;;;11.00;95.14;99753.22;4990541;28;20042;-53
2022/04/14 06:02:21;;;;;;;107.80;39.38;;;;;;;11.05;95.51;99751.72;4989240;28;20038;-51
2022/04/14 06:04:46;;;;;;;101.57;38.28;;;;;;;11.13;94.88;99754.06;5002390;28;20025;-53
2022/04/14 06:07:11;;;;;;;109.80;38.78;;;;;;;11.18;94.41;99757.69;4999502;28;20523;-51
2022/04/14 06:09:37;;;;;;;112.15;39.78;;;;;;;11.14;94.87;99755.72;4997031;28;20022;-50
2022/04/14 06:12:03;;;;;;;109.63;41.28;;;;;;;11.15;94.81;99762.69;4995402;28;20046;-52
2022/04/14 06:14:30;;;;;;;114.47;41.58;;;;;;;11.19;95.13;99759.31;4989876;28;20084;-50
2022/04/14 06:16:56;;;;;;;108.22;40.78;;;;;;;11.29;94.26;99757.94;4994946;28;20069;-52
2022/04/14 06:19:21;;;;;;;106.68;39.30;;;;;;;11.36;93.58;99764.81;4993364;28;20037;-51
2022/04/14 06:21:46;;;;;;;98.32;40.28;;;;;;;11.45;93.32;99760.69;4994395;28;20041;-51
2022/04/14 06:24:12;;;;;;;101.90;38.10;;;;;;;11.50;93.01;99764.53;4994476;28;20793;-52
2022/04/14 06:26:37;;;;;;;107.95;37.65;;;;;;;11.57;92.52;99759.88;4997079;28;20499;-54
2022/04/14 06:29:03;;;;;;;115.00;40.50;;;;;;;11.63;92.45;99765.13;4999708;28;20174;-51
2022/04/14 06:31:28;;;;;;;91.75;38.05;;;;;;;11.68;92.51;99761.72;4994528;28;20069;-52
2022/04/14 06:33:53;;;;;;;109.47;39.85;;;;;;;11.60;92.84;99759.41;4994319;28;20033;-53
2022/04/14 06:36:19;;;;;;;107.15;39.95;;;;;;;11.58;93.04;99759.66;4994880;28;20045;-51
2022/04/14 06:38:45;;;;;;;108.20;40.35;;;;;;;11.69;92.64;99767.91;4997619;28;20274;-53
2022/04/14 06:41:10;;;;;;;129.38;44.45;;;;;;;11.42;93.67;99771.09;4999649;28;20050;-53
2022/04/14 06:43:36;;;;;;;102.82;37.47;;;;;;;11.54;93.27;99773.78;4990214;28;20089;-52
2022/04/14 06:46:03;;;;;;;124.57;42.38;;;;;;;11.61;93.04;99767.22;4994103;28;20048;-51
2022/04/14 06:48:30;;;;;;;119.15;42.63;;;;;;;11.69;92.42;99770.59;4993146;28;20034;-50
2022/04/14 06:50:57;;;;;;;114.20;42.80;;;;;;;11.76;92.15;99777.47;4989587;28;20049;-54
2022/04/14 06:53:22;;;;;;;121.13;42.85;;;;;;;11.82;92.33;99783.75;4996393;28;20038;-51
2022/04/14 06:55:48;;;;;;;124.10;44.97;;;;;;;11.65;92.64;99778.28;4993529;28;20155;-53
2022/04/14 06:58:13;;;;;;;129.02;42.03;;;;;;;11.68;93.32;99783.19;4992252;28;20494;-52
2022/04/14 07:00:40;;;;;;;108.68;41.67;;;;;;;11.68;92.97;99793.94;4997516;28;20448;-51
2022/04/14 07:03:05;;;;;;;123.32;43.50;;;;;;;11.63;93.61;99785.75;4991614;28;20084;-51
2022/04/14 07:05:31;;;;;;;121.53;44.65;;;;;;;11.81;92.74;99791.00;4996516;28;20038;-51
2022/04/14 07:07:56;;;;;;;116.05;43.55;;;;;;;11.89;92.79;99794.41;4986921;28;20026;-51
2022/04/14 07:10:22;;;;;;;111.07;42.95;;;;;;;11.84;92.86;99798.59;4991782;28;20046;-51
2022/04/14 07:12:47;;;;;;;117.30;41.58;;;;;;;11.92;92.63;99799.31;4990117;28;20026;-50
2022/04/14 07:15:13;;;;;;;118.00;42.88;;;;;;;12.13;91.58;99800.53;4991625;28;20022;-54
2022/04/14 07:17:38;;;;;;;108.22;40.92;;;;;;;12.22;91.25;99805.28;4997519;28;20029;-51
2022/04/14 07:20:05;;;;;;;118.35;44.33;;;;;;;12.23;90.73;99806.94;4994269;28;20038;-53
2022/04/14 07:22:31;;;;;;;124.97;41.80;;;;;;;12.29;89.80;99810.53;4991093;28;20427;-52
2022/04/14 07:24:58;;;;;;;103.95;39.25;;;;;;;12.50;89.32;99814.41;4993115;28;20559;-50
2022/04/14 07:27:23;;;;;;;100.63;41.03;;;;;;;12.44;88.53;99818.06;4995387;28;20035;-53
2022/04/14 07:29:49;;;;;;;118.57;43.08;;;;;;;12.52;87.88;99820.38;4986614;28;20053;-52
2022/04/14 07:32:14;;;;;;;104.20;42.53;;;;;;;12.42;88.41;99820.19;4994933;28;20448;-54
2022/04/14 07:34:40;;;;;;;118.20;40.53;;;;;;;12.31;88.05;99816.47;4991347;28;20033;-51
2022/04/14 07:37:05;;;;;;;114.80;41.10;;;;;;;12.42;87.71;99820.19;4996011;28;20038;-53
2022/04/14 07:39:31;;;;;;;101.05;39.33;;;;;;;12.50;87.49;99822.47;4991975;28;20053;-53
2022/04/14 07:41:56;;;;;;;106.45;39.70;;;;;;;12.38;88.08;99825.22;4991136;28;20038;-53
2022/04/14 07:44:22;;;;;;;98.65;40.28;;;;;;;12.56;87.12;99832.28;4988094;28;20053;-51
2022/04/14 07:46:47;;;;;;;101.53;37.05;;;;;;;12.69;86.37;99820.41;4989008;28;20037;-51
2022/04/14 07:49:12;;;;;;;93.47;37.35;;;;;;;12.67;86.50;99826.00;4992778;28;20120;-53
2022/04/14 07:51:40;;;;;;;94.28;36.10;;;;;;;12.57;86.63;99828.53;5000662;28;20119;-51
2022/04/14 07:54:05;;;;;;;91.65;36.22;;;;;;;12.64;86.50;99823.81;4992048;28;20041;-51
2022/04/14 07:56:31;;;;;;;96.18;36.08;;;;;;;12.78;86.13;99827.03;4992638;28;20069;-50
2022/04/14 07:58:56;;;;;;;102.03;37.47;;;;;;;12.69;85.74;99821.22;4997174;28;20053;-53
2022/04/14 08:01:22;;;;;;;84.72;34.80;;;;;;;12.95;85.10;99835.94;5000200;28;20200;-52
2022/04/14 08:03:47;;;;;;;83.95;36.05;;;;;;;13.21;83.58;99833.66;4993747;28;20038;-51
2022/04/14 08:06:13;;;;;;;77.78;34.55;;;;;;;12.90;84.53;99837.72;4992835;28;20046;-53
2022/04/14 08:08:39;;;;;;;79.15;32.20;;;;;;;13.23;83.46;99828.84;4989866;28;20140;-58
2022/04/14 08:11:05;;;;;;;80.82;31.63;;;;;;;13.39;81.68;99835.31;4991029;28;20047;-53
2022/04/14 08:13:35;;;;;;;72.72;32.95;;;;;;;13.58;81.38;99834.00;4987634;28;20030;-50
2022/04/14 08:16:03;;;;;;;72.38;30.15;;;;;;;13.45;80.12;99833.50;4997963;28;20166;-52
2022/04/14 08:18:29;;;;;;;62.05;27.98;;;;;;;13.97;78.03;99830.47;4986989;28;20027;-50
2022/04/14 08:20:57;;;;;;;63.70;28.10;;;;;;;14.07;77.04;99830.59;4994017;28;20065;-53
2022/04/14 08:23:22;;;;;;;61.97;27.02;;;;;;;13.93;77.13;99834.75;4990066;28;20139;-52
2022/04/14 08:25:47;;;;;;;67.18;28.98;;;;;;;14.02;76.57;99838.63;4988006;28;20548;-53
2022/04/14 08:28:13;;;;;;;63.00;26.15;;;;;;;14.52;75.56;99836.78;4992459;28;20496;-53
2022/04/14 08:30:40;;;;;;;67.68;28.98;;;;;;;14.35;75.69;99828.75;4994264;28;20042;-53
2022/04/14 08:33:10;;;;;;;63.40;25.55;;;;;;;14.37;75.40;99827.44;4995086;28;20038;-52
2022/04/14 08:35:35;;;;;;;;;;;;;;;14.32;74.78;99832.78;4997614;28;20054;-51
2022/04/14 08:38:04;;;;;;;59.85;24.65;;;;;;;15.14;73.35;99828.22;4993680;28;19918;-53
2022/04/14 08:40:33;;;;;;;46.78;20.77;;;;;;;14.80;71.12;99833.88;4994367;28;20042;-53
2022/04/14 08:43:00;;;;;;;53.38;21.00;;;;;;;15.28;70.11;99834.00;4991269;28;20053;-53
2022/04/14 08:45:27;;;;;;;38.55;18.25;;;;;;;15.32;69.78;99840.50;4993395;28;20552;-53
2022/04/14 08:47:53;;;;;;;40.88;17.40;;;;;;;15.55;68.79;99842.03;4976321;28;20022;-52
2022/04/14 08:50:18;;;;;;;35.65;16.92;;;;;;;15.65;68.24;99838.56;4988079;28;20044;-53
2022/04/14 08:52:44;;;;;;;32.28;16.30;;;;;;;15.41;68.78;99843.53;4992393;28;20365;-52
2022/04/14 08:55:11;;;;;;;32.08;15.68;;;;;;;15.44;67.12;99837.63;4994190;28;20033;-51
2022/04/14 08:57:36;;;;;;;33.03;14.57;;;;;;;15.32;68.80;99846.72;4991912;28;20030;-51
2022/04/14 09:00:04;;;;;;;34.83;15.73;;;;;;;15.59;67.30;99853.94;4987332;28;20301;-51
2022/04/14 09:02:31;;;;;;;34.47;14.65;;;;;;;15.21;67.94;99845.00;4993776;28;20018;-54
2022/04/14 09:04:56;;;;;;;31.42;14.73;;;;;;;14.60;69.64;99857.91;4986770;28;20042;-51
2022/04/14 09:07:22;;;;;;;30.88;13.23;;;;;;;14.60;69.87;99850.66;4990791;28;20037;-52
2022/04/14 09:09:47;;;;;;;29.92;13.25;;;;;;;14.58;69.49;99862.78;4995575;28;20113;-53
2022/04/14 09:12:13;;;;;;;29.85;12.25;;;;;;;14.98;68.93;99859.66;4990303;28;20046;-51
2022/04/14 09:14:39;;;;;;;31.08;11.65;;;;;;;14.90;68.22;99854.72;4979370;28;20057;-50
2022/04/14 09:17:05;;;;;;;29.50;12.27;;;;;;;14.35;70.08;99859.25;4989473;28;20261;-51
2022/04/14 09:19:31;;;;;;;27.55;12.23;;;;;;;14.73;69.37;99854.84;4989771;28;20030;-53
2022/04/14 09:22:03;;;;;;;32.05;12.95;;;;;;;14.94;69.37;99869.34;4998320;28;20054;-50
2022/04/14 09:24:45;;;;;;;28.50;12.25;;;;;;;15.22;68.39;99865.53;4991348;28;20026;-51
2022/04/14 09:27:24;;;;;;;34.55;15.40;;;;;;;15.03;69.24;99864.31;4999923;28;20042;-54
2022/04/14 09:29:50;;;;;;;24.00;12.65;;;;;;;14.91;67.88;99860.94;4990583;28;20044;-51
2022/04/14 09:32:35;;;;;;;25.02;11.93;;;;;;;15.19;67.67;99863.34;4995875;28;20046;-53
2022/04/14 09:35:03;;;;;;;31.02;16.60;;;;;;;14.78;69.50;99871.06;4991406;28;20026;-52
2022/04/14 09:37:29;;;;;;;27.85;12.13;;;;;;;15.13;69.02;99867.09;5001056;28;20036;-50
2022/04/14 09:40:00;;;;;;;29.70;15.23;;;;;;;15.16;67.96;99858.47;4997333;28;20026;-53
2022/04/14 09:42:27;;;;;;;29.52;12.07;;;;;;;15.29;67.29;99858.03;4996667;28;20049;-53
2022/04/14 09:44:53;;;;;;;27.02;10.57;;;;;;;15.35;67.43;99860.75;4990985;28;20026;-51
2022/04/14 09:47:24;;;;;;;23.60;10.50;;;;;;;15.16;68.19;99863.06;4989122;28;20096;-52
2022/04/14 09:49:49;;;;;;;18.80;9.50;;;;;;;15.06;68.59;99863.78;4992696;28;20046;-54
2022/04/14 09:52:15;;;;;;;19.65;9.02;;;;;;;15.28;66.73;99867.22;4990796;28;20414;-53
2022/04/14 09:54:45;;;;;;;25.92;10.30;;;;;;;15.67;66.31;99858.84;4996279;28;20034;-54
2022/04/14 09:57:11;;;;;;;22.50;9.40;;;;;;;15.77;65.54;99868.94;4989990;28;20134;-52
2022/04/14 09:59:37;;;;;;;20.88;8.50;;;;;;;15.23;66.43;99863.66;4990338;28;20113;-51
2022/04/14 10:02:13;;;;;;;21.27;9.27;;;;;;;14.77;66.95;99872.13;4997179;28;20574;-53
2022/04/14 10:04:46;;;;;;;18.98;9.90;;;;;;;14.62;66.87;99869.28;4997477;28;20437;-52
2022/04/14 10:07:16;;;;;;;19.92;10.98;;;;;;;14.65;68.07;99866.06;4990345;28;20050;-53
2022/04/14 10:09:43;;;;;;;20.08;10.18;;;;;;;15.49;66.79;99861.97;5001102;28;20022;-53
2022/04/14 10:12:17;;;;;;;26.23;12.82;;;;;;;15.86;65.13;99866.56;4992534;28;20057;-52
2022/04/14 10:15:03;;;;;;;28.77;13.52;;;;;;;15.36;66.77;99867.81;4991038;28;20034;-53
2022/04/14 10:17:38;;;;;;;36.47;16.05;;;;;;;15.13;67.41;99869.78;4990652;28;20851;-53
2022/04/14 10:20:05;;;;;;;34.13;17.02;;;;;;;15.51;66.97;99865.22;4992360;28;20030;-54
2022/04/14 10:22:31;;;;;;;35.03;16.20;;;;;;;15.92;65.92;99860.91;4991112;28;20031;-54
2022/04/14 10:24:56;;;;;;;34.80;17.05;;;;;;;16.10;66.33;99861.53;4998340;28;20121;-52
2022/04/14 10:27:22;;;;;;;32.22;17.58;;;;;;;16.26;65.90;99865.94;4981467;28;20621;-51
2022/04/14 10:29:49;;;;;;;40.30;19.20;;;;;;;16.81;63.11;99864.50;4999252;28;20393;-51
2022/04/14 10:32:14;;;;;;;43.80;18.75;;;;;;;17.09;62.45;99866.97;4990166;28;20046;-50
2022/04/14 10:34:40;;;;;;;36.10;18.83;;;;;;;17.19;62.46;99861.56;4990505;28;20456;-52
2022/04/14 10:37:07;;;;;;;40.58;19.33;;;;;;;17.31;61.26;99864.81;4995106;28;20488;-51
2022/04/14 10:39:35;;;;;;;32.00;17.27;;;;;;;17.37;60.94;99858.31;4992472;28;20033;-52
2022/04/14 10:42:00;;;;;;;40.58;17.52;;;;;;;18.24;60.16;99860.03;4978542;28;20070;-52
2022/04/14 10:44:46;;;;;;;34.60;16.17;;;;;;;18.32;58.99;99849.44;4981264;28;20487;-53
2022/04/14 10:47:13;;;;;;;35.50;17.60;;;;;;;19.00;58.66;99856.13;4987904;28;20093;-50
2022/04/14 10:49:41;;;;;;;36.10;17.65;;;;;;;19.42;55.75;99856.56;4991141;28;20097;-52
2022/04/14 10:52:22;;;;;;;41.97;16.05;;;;;;;19.18;57.90;99858.13;4990675;28;20461;-54
2022/04/14 10:54:58;;;;;;;36.40;16.95;;;;;;;19.18;56.50;99857.34;4994077;28;20026;-54
2022/04/14 10:57:37;;;;;;;28.90;15.05;;;;;;;18.90;57.34;99856.19;4995370;28;20034;-54
2022/04/14 11:00:20;;;;;;;31.67;15.93;;;;;;;18.28;58.08;99858.41;4992400;28;20113;-54
2022/04/14 11:03:06;;;;;;;30.58;14.85;;;;;;;19.27;56.54;99860.22;4994982;28;20045;-51
2022/04/14 11:05:48;;;;;;;27.95;13.48;;;;;;;17.58;59.04;99858.31;5001630;28;20042;-52
2022/04/14 11:08:29;;;;;;;33.10;14.05;;;;;;;17.76;58.67;99855.00;4989721;28;20045;-49
2022/04/14 11:11:10;;;;;;;24.58;12.57;;;;;;;18.03;57.67;99851.19;4992932;28;20042;-51
2022/04/14 11:13:51;;;;;;;28.70;13.38;;;;;;;19.63;54.32;99841.69;4994884;28;20468;-51